sensor_id;sensor_type;location;lat;lon;timestamp;pressure;altitude;pressure_sealevel;temperature;humidity
68891;BME280;55932;48.702;8.884;2022-11-20T00:06:32;95610;;;3.4;74.5
68891;BME280;55932;48.702;8.884;2022-11-20T00:11:44;95600;;;3.5;74
68891;BME280;55932;48.702;8.884;2022-11-20T00:14:14;95600;;;3.5;74
68891;BME280;55932;48.702;8.884;2022-11-20T00:19:08;95590;;;3.5;74
68891;BME280;55932;48.702;8.884;2022-11-20T00:21:38;95600;;;3.6;74
68891;BME280;55932;48.702;8.884;2022-11-20T00:24:09;95600;;;3.6;74
68891;BME280;55932;48.702;8.884;2022-11-20T00:26:33;95610;;;3.7;74
68891;BME280;55932;48.702;8.884;2022-11-20T00:34:06;95610;;;3.7;74
68891;BME280;55932;48.702;8.884;2022-11-20T00:36:36;95610;;;3.7;74
68891;BME280;55932;48.702;8.884;2022-11-20T00:39:07;95600;;;3.7;74
68891;BME280;55932;48.702;8.884;2022-11-20T00:41:38;95610;;;3.6;74
68891;BME280;55932;48.702;8.884;2022-11-20T00:46:46;95600;;;3.6;74.5
68891;BME280;55932;48.702;8.884;2022-11-20T00:49:17;95610;;;3.6;74
68891;BME280;55932;48.702;8.884;2022-11-20T00:51:48;95610;;;3.6;74
68891;BME280;55932;48.702;8.884;2022-11-20T00:54:18;95610;;;3.6;74
68891;BME280;55932;48.702;8.884;2022-11-20T01:01:44;95600;;;3.8;74
68891;BME280;55932;48.702;8.884;2022-11-20T01:04:15;95610;;;3.8;74
68891;BME280;55932;48.702;8.884;2022-11-20T01:06:50;95610;;;3.7;74
68891;BME280;55932;48.702;8.884;2022-11-20T01:16:49;95610;;;3.5;74.5
68891;BME280;55932;48.702;8.884;2022-11-20T01:19:39;95620;;;3.3;74.5
68891;BME280;55932;48.702;8.884;2022-11-20T01:24:33;95620;;;3.5;74.5
68891;BME280;55932;48.702;8.884;2022-11-20T01:27:03;95620;;;3.5;75
68891;BME280;55932;48.702;8.884;2022-11-20T01:29:33;95620;;;3.7;74.5
68891;BME280;55932;48.702;8.884;2022-11-20T01:34:27;95620;;;3.5;74.5
68891;BME280;55932;48.702;8.884;2022-11-20T01:36:59;95620;;;3.4;75
68891;BME280;55932;48.702;8.884;2022-11-20T01:39:29;95620;;;3.4;75
68891;BME280;55932;48.702;8.884;2022-11-20T01:42:07;95620;;;3.4;75
68891;BME280;55932;48.702;8.884;2022-11-20T01:45:00;95620;;;3.3;75
68891;BME280;55932;48.702;8.884;2022-11-20T01:47:17;95620;;;3.2;75
68891;BME280;55932;48.702;8.884;2022-11-20T01:49:39;95620;;;3.1;75
68891;BME280;55932;48.702;8.884;2022-11-20T01:54:35;95620;;;3.2;75
68891;BME280;55932;48.702;8.884;2022-11-20T01:57:03;95620;;;3.2;75
68891;BME280;55932;48.702;8.884;2022-11-20T01:59:34;95620;;;3.2;75
68891;BME280;55932;48.702;8.884;2022-11-20T02:02:04;95620;;;3.4;75
68891;BME280;55932;48.702;8.884;2022-11-20T02:04:35;95620;;;3.4;75
68891;BME280;55932;48.702;8.884;2022-11-20T02:07:07;95620;;;3.5;75
68891;BME280;55932;48.702;8.884;2022-11-20T02:09:44;95620;;;3.6;74.5
68891;BME280;55932;48.702;8.884;2022-11-20T02:14:40;95610;;;3.5;74.5
68891;BME280;55932;48.702;8.884;2022-11-20T02:19:47;95610;;;3.4;74.5
68891;BME280;55932;48.702;8.884;2022-11-20T02:22:19;95610;;;3.4;74.5
68891;BME280;55932;48.702;8.884;2022-11-20T02:24:48;95610;;;3.4;74.5
68891;BME280;55932;48.702;8.884;2022-11-20T02:27:18;95600;;;3.4;74.5
68891;BME280;55932;48.702;8.884;2022-11-20T02:32:28;95600;;;3.3;75
68891;BME280;55932;48.702;8.884;2022-11-20T02:34:43;95600;;;3.2;75
68891;BME280;55932;48.702;8.884;2022-11-20T02:37:21;95610;;;3.2;75
68891;BME280;55932;48.702;8.884;2022-11-20T02:42:09;95610;;;3.1;75
68891;BME280;55932;48.702;8.884;2022-11-20T02:47:23;95620;;;3.1;75
68891;BME280;55932;48.702;8.884;2022-11-20T02:49:53;95620;;;3;75
68891;BME280;55932;48.702;8.884;2022-11-20T02:54:48;95620;;;2.9;75
68891;BME280;55932;48.702;8.884;2022-11-20T02:57:19;95610;;;2.9;75
68891;BME280;55932;48.702;8.884;2022-11-20T02:59:49;95620;;;2.9;75
68891;BME280;55932;48.702;8.884;2022-11-20T03:02:21;95620;;;2.8;75
68891;BME280;55932;48.702;8.884;2022-11-20T03:04:58;95620;;;2.7;75
68891;BME280;55932;48.702;8.884;2022-11-20T03:12:42;95630;;;2.5;75
68891;BME280;55932;48.702;8.884;2022-11-20T03:15:04;95620;;;2.4;75
68891;BME280;55932;48.702;8.884;2022-11-20T03:17:33;95620;;;2.3;75
68891;BME280;55932;48.702;8.884;2022-11-20T03:20:04;95620;;;2.2;75
68891;BME280;55932;48.702;8.884;2022-11-20T03:22:34;95620;;;2;75.5
68891;BME280;55932;48.702;8.884;2022-11-20T03:24:53;95610;;;2.1;75
68891;BME280;55932;48.702;8.884;2022-11-20T03:27:24;95610;;;2.1;75
68891;BME280;55932;48.702;8.884;2022-11-20T03:34:55;95610;;;2.3;75
68891;BME280;55932;48.702;8.884;2022-11-20T03:37:26;95610;;;2.3;75
68891;BME280;55932;48.702;8.884;2022-11-20T03:42:26;95610;;;2.3;75
68891;BME280;55932;48.702;8.884;2022-11-20T03:44:57;95610;;;2.3;75
68891;BME280;55932;48.702;8.884;2022-11-20T03:47:27;95620;;;2.3;75
68891;BME280;55932;48.702;8.884;2022-11-20T03:49:58;95610;;;2.5;75
68891;BME280;55932;48.702;8.884;2022-11-20T03:52:28;95610;;;2.8;74.5
68891;BME280;55932;48.702;8.884;2022-11-20T04:02:31;95610;;;3;74.5
68891;BME280;55932;48.702;8.884;2022-11-20T04:05:01;95610;;;3.2;74.5
68891;BME280;55932;48.702;8.884;2022-11-20T04:10:13;95610;;;3.2;74
68891;BME280;55932;48.702;8.884;2022-11-20T04:12:43;95610;;;3.2;74
68891;BME280;55932;48.702;8.884;2022-11-20T04:15:13;95600;;;3.2;74
68891;BME280;55932;48.702;8.884;2022-11-20T04:17:43;95600;;;3.2;74
68891;BME280;55932;48.702;8.884;2022-11-20T04:20:03;95600;;;3.2;74
68891;BME280;55932;48.702;8.884;2022-11-20T04:32:35;95590;;;3.3;74
68891;BME280;55932;48.702;8.884;2022-11-20T04:35:06;95590;;;3.3;74
68891;BME280;55932;48.702;8.884;2022-11-20T04:37:36;95590;;;3.3;74
68891;BME280;55932;48.702;8.884;2022-11-20T04:40:07;95590;;;3.3;74.5
68891;BME280;55932;48.702;8.884;2022-11-20T04:42:37;95590;;;3.4;74
68891;BME280;55932;48.702;8.884;2022-11-20T04:45:08;95590;;;3.5;74
68891;BME280;55932;48.702;8.884;2022-11-20T04:47:50;95590;;;3.6;74
68891;BME280;55932;48.702;8.884;2022-11-20T04:50:20;95600;;;3.6;74
68891;BME280;55932;48.702;8.884;2022-11-20T04:52:50;95590;;;3.6;74
68891;BME280;55932;48.702;8.884;2022-11-20T04:55:29;95590;;;3.7;74
68891;BME280;55932;48.702;8.884;2022-11-20T05:00:09;95590;;;3.7;74
68891;BME280;55932;48.702;8.884;2022-11-20T05:02:40;95590;;;3.8;74
68891;BME280;55932;48.702;8.884;2022-11-20T05:05:10;95580;;;3.9;74
68891;BME280;55932;48.702;8.884;2022-11-20T05:07:41;95580;;;3.9;74
68891;BME280;55932;48.702;8.884;2022-11-20T05:10:11;95580;;;4;74
68891;BME280;55932;48.702;8.884;2022-11-20T05:12:42;95580;;;4;74
68891;BME280;55932;48.702;8.884;2022-11-20T05:20:36;95580;;;4.1;74
68891;BME280;55932;48.702;8.884;2022-11-20T05:30:47;95590;;;4.1;74
68891;BME280;55932;48.702;8.884;2022-11-20T05:35:39;95580;;;4.2;74
68891;BME280;55932;48.702;8.884;2022-11-20T05:38:10;95580;;;4.2;74
68891;BME280;55932;48.702;8.884;2022-11-20T05:43:00;95590;;;4.4;73.5
68891;BME280;55932;48.702;8.884;2022-11-20T05:45:30;95580;;;4.5;73.5
68891;BME280;55932;48.702;8.884;2022-11-20T05:48:01;95570;;;4.5;73.5
68891;BME280;55932;48.702;8.884;2022-11-20T05:53:10;95580;;;4.7;73.5
68891;BME280;55932;48.702;8.884;2022-11-20T05:55:32;95580;;;4.8;73.5
68891;BME280;55932;48.702;8.884;2022-11-20T06:00:43;95590;;;5;73.5
68891;BME280;55932;48.702;8.884;2022-11-20T06:03:14;95580;;;5.1;73.5
68891;BME280;55932;48.702;8.884;2022-11-20T06:08:14;95580;;;5.2;73.5
68891;BME280;55932;48.702;8.884;2022-11-20T06:10:45;95580;;;5.2;73.5
68891;BME280;55932;48.702;8.884;2022-11-20T06:13:16;95580;;;5.2;73.5
68891;BME280;55932;48.702;8.884;2022-11-20T06:20:47;95580;;;5.1;73.5
68891;BME280;55932;48.702;8.884;2022-11-20T06:23:27;95570;;;5.1;74
68891;BME280;55932;48.702;8.884;2022-11-20T06:28:07;95570;;;5;74
68891;BME280;55932;48.702;8.884;2022-11-20T06:30:37;95570;;;5;74
68891;BME280;55932;48.702;8.884;2022-11-20T06:33:07;95570;;;5;74
68891;BME280;55932;48.702;8.884;2022-11-20T06:40:49;95570;;;5;74
68891;BME280;55932;48.702;8.884;2022-11-20T06:45:53;95570;;;5;74
68891;BME280;55932;48.702;8.884;2022-11-20T06:48:29;95570;;;5;74
68891;BME280;55932;48.702;8.884;2022-11-20T06:53:10;95580;;;5.1;74
68891;BME280;55932;48.702;8.884;2022-11-20T06:55:42;95590;;;5.1;74
68891;BME280;55932;48.702;8.884;2022-11-20T06:58:10;95590;;;5.1;74
68891;BME280;55932;48.702;8.884;2022-11-20T07:05:30;95610;;;5.2;74
68891;BME280;55932;48.702;8.884;2022-11-20T07:08:00;95600;;;5.1;74
68891;BME280;55932;48.702;8.884;2022-11-20T07:10:31;95600;;;5;74
68891;BME280;55932;48.702;8.884;2022-11-20T07:13:01;95600;;;5;74
68891;BME280;55932;48.702;8.884;2022-11-20T07:15:32;95600;;;5;74
68891;BME280;55932;48.702;8.884;2022-11-20T07:20:32;95600;;;5.2;74
68891;BME280;55932;48.702;8.884;2022-11-20T07:23:03;95600;;;5.3;74
68891;BME280;55932;48.702;8.884;2022-11-20T07:25:34;95600;;;5.4;73.5
68891;BME280;55932;48.702;8.884;2022-11-20T07:33:05;95600;;;5.5;73.5
68891;BME280;55932;48.702;8.884;2022-11-20T07:35:36;95600;;;5.5;73.5
68891;BME280;55932;48.702;8.884;2022-11-20T07:38:27;95600;;;5.6;73.5
68891;BME280;55932;48.702;8.884;2022-11-20T07:40:48;95610;;;5.5;73.5
68891;BME280;55932;48.702;8.884;2022-11-20T07:43:18;95600;;;5.6;73.5
68891;BME280;55932;48.702;8.884;2022-11-20T07:45:49;95600;;;5.6;73.5
68891;BME280;55932;48.702;8.884;2022-11-20T07:48:19;95600;;;5.6;73.5
68891;BME280;55932;48.702;8.884;2022-11-20T07:50:53;95600;;;5.6;73.5
68891;BME280;55932;48.702;8.884;2022-11-20T07:53:20;95610;;;5.7;73.5
68891;BME280;55932;48.702;8.884;2022-11-20T07:55:50;95610;;;5.8;73.5
68891;BME280;55932;48.702;8.884;2022-11-20T07:58:20;95610;;;5.9;73.5
68891;BME280;55932;48.702;8.884;2022-11-20T08:00:40;95620;;;5.9;73.5
68891;BME280;55932;48.702;8.884;2022-11-20T08:03:10;95610;;;5.9;73.5
68891;BME280;55932;48.702;8.884;2022-11-20T08:05:40;95620;;;5.8;73.5
68891;BME280;55932;48.702;8.884;2022-11-20T08:13:11;95630;;;5.6;73.5
68891;BME280;55932;48.702;8.884;2022-11-20T08:15:47;95630;;;5.7;73.5
68891;BME280;55932;48.702;8.884;2022-11-20T08:23:14;95640;;;5.9;73.5
68891;BME280;55932;48.702;8.884;2022-11-20T08:25:48;95630;;;6;73
68891;BME280;55932;48.702;8.884;2022-11-20T08:28:15;95630;;;6.2;73
68891;BME280;55932;48.702;8.884;2022-11-20T08:30:58;95640;;;6.3;73
68891;BME280;55932;48.702;8.884;2022-11-20T08:33:27;95630;;;6.3;73
68891;BME280;55932;48.702;8.884;2022-11-20T08:35:59;95640;;;6.4;73
68891;BME280;55932;48.702;8.884;2022-11-20T08:38:16;95640;;;6.5;73
68891;BME280;55932;48.702;8.884;2022-11-20T08:41:09;95650;;;6.6;73
68891;BME280;55932;48.702;8.884;2022-11-20T08:43:40;95640;;;6.8;73
68891;BME280;55932;48.702;8.884;2022-11-20T08:51:20;95650;;;6.7;73
68891;BME280;55932;48.702;8.884;2022-11-20T08:56:12;95650;;;6.8;73
68891;BME280;55932;48.702;8.884;2022-11-20T08:58:42;95660;;;6.7;73.5
68891;BME280;55932;48.702;8.884;2022-11-20T09:06:05;95660;;;6.5;73.5
68891;BME280;55932;48.702;8.884;2022-11-20T09:08:33;95670;;;6.5;73.5
68891;BME280;55932;48.702;8.884;2022-11-20T09:11:12;95660;;;6.4;73
68891;BME280;55932;48.702;8.884;2022-11-20T09:18:34;95660;;;6.3;73.5
68891;BME280;55932;48.702;8.884;2022-11-20T09:21:07;95670;;;6.3;73.5
68891;BME280;55932;48.702;8.884;2022-11-20T09:23:34;95680;;;6.2;73.5
68891;BME280;55932;48.702;8.884;2022-11-20T09:25:54;95680;;;6.1;73.5
68891;BME280;55932;48.702;8.884;2022-11-20T09:28:24;95670;;;6.2;73.5
68891;BME280;55932;48.702;8.884;2022-11-20T09:35:56;95680;;;6;73.5
68891;BME280;55932;48.702;8.884;2022-11-20T09:38:26;95680;;;6.1;73.5
68891;BME280;55932;48.702;8.884;2022-11-20T09:41:00;95680;;;6.1;73.5
68891;BME280;55932;48.702;8.884;2022-11-20T09:48:42;95680;;;6;73.5
68891;BME280;55932;48.702;8.884;2022-11-20T09:51:20;95680;;;6;73.5
68891;BME280;55932;48.702;8.884;2022-11-20T09:53:45;95680;;;6.1;73
68891;BME280;55932;48.702;8.884;2022-11-20T09:56:10;95680;;;6.3;73
68891;BME280;55932;48.702;8.884;2022-11-20T10:03:36;95690;;;6.5;73
68891;BME280;55932;48.702;8.884;2022-11-20T10:11:35;95690;;;6.6;73
68891;BME280;55932;48.702;8.884;2022-11-20T10:14:05;95690;;;6.4;73
68891;BME280;55932;48.702;8.884;2022-11-20T10:16:27;95690;;;6.2;73
68891;BME280;55932;48.702;8.884;2022-11-20T10:21:18;95700;;;6;73
68891;BME280;55932;48.702;8.884;2022-11-20T10:23:50;95690;;;6.1;73
68891;BME280;55932;48.702;8.884;2022-11-20T10:28:56;95690;;;6.4;72.5
68891;BME280;55932;48.702;8.884;2022-11-20T10:33:35;95690;;;6;73
68891;BME280;55932;48.702;8.884;2022-11-20T10:36:05;95690;;;6;73.5
68891;BME280;55932;48.702;8.884;2022-11-20T10:38:39;95690;;;5.9;73.5
68891;BME280;55932;48.702;8.884;2022-11-20T10:41:05;95680;;;5.9;73.5
68891;BME280;55932;48.702;8.884;2022-11-20T10:43:35;95680;;;6;73.5
68891;BME280;55932;48.702;8.884;2022-11-20T10:46:08;95680;;;6.1;73.5
68891;BME280;55932;48.702;8.884;2022-11-20T10:48:47;95680;;;6.4;73
68891;BME280;55932;48.702;8.884;2022-11-20T10:54:22;95670;;;6.9;72.5
68891;BME280;55932;48.702;8.884;2022-11-20T10:56:31;95680;;;7;72.5
68891;BME280;55932;48.702;8.884;2022-11-20T10:59:02;95670;;;7;73
68891;BME280;55932;48.702;8.884;2022-11-20T11:01:19;95670;;;7.1;73
68891;BME280;55932;48.702;8.884;2022-11-20T11:03:50;95670;;;7.4;72.5
68891;BME280;55932;48.702;8.884;2022-11-20T11:06:21;95670;;;7.7;72.5
68891;BME280;55932;48.702;8.884;2022-11-20T11:18:51;95640;;;7.3;73
68891;BME280;55932;48.702;8.884;2022-11-20T11:21:21;95640;;;7.4;74.5
68891;BME280;55932;48.702;8.884;2022-11-20T11:23:59;95630;;;9.3;75.5
68891;BME280;55932;48.702;8.884;2022-11-20T11:26:21;95620;;;11.5;73
68891;BME280;55932;48.702;8.884;2022-11-20T11:31:10;95620;;;13;70.5
68891;BME280;55932;48.702;8.884;2022-11-20T11:33:41;95610;;;12.7;69
68891;BME280;55932;48.702;8.884;2022-11-20T11:36:20;95610;;;12.7;70.5
68891;BME280;55932;48.702;8.884;2022-11-20T11:38:42;95610;;;12.9;70.5
68891;BME280;55932;48.702;8.884;2022-11-20T11:41:15;95610;;;13.2;71.5
68891;BME280;55932;48.702;8.884;2022-11-20T11:43:49;95610;;;13.4;71
68891;BME280;55932;48.702;8.884;2022-11-20T11:46:27;95600;;;13.2;71
68891;BME280;55932;48.702;8.884;2022-11-20T11:49:30;95590;;;13.5;71.5
68891;BME280;55932;48.702;8.884;2022-11-20T11:51:27;95590;;;14.4;70.5
